Time;durP1;ratioP1;P1;durP2;ratioP2;P2;SDS_P1;SDS_P2;PMS_P1;PMS_P2;Temp;Humidity;BMP_temperature;BMP_pressure;BME280_temperature;BME280_humidity;BME280_pressure;Samples;Min_cycle;Max_cycle;Signal;HPM_P1;HPM_P2
2021/05/11 00:01:12;;;;;;;1.20;0.80;;;;;;;10.38;82.04;94897.09;5055162;28;20217;-80
2021/05/11 00:03:38;;;;;;;0.80;0.80;;;;;;;10.37;82.15;94897.25;5072669;28;20173;-80
2021/05/11 00:06:03;;;;;;;0.90;0.70;;;;;;;10.40;81.68;94895.16;5072650;28;20170;-79
2021/05/11 00:08:29;;;;;;;1.20;1.10;;;;;;;10.38;81.74;94894.50;5055975;28;20181;-80
2021/05/11 00:10:54;;;;;;;1.10;1.00;;;;;;;10.39;81.38;94893.53;5055605;28;20296;-79
2021/05/11 00:13:19;;;;;;;1.27;1.10;;;;;;;10.39;81.52;94893.53;5055786;28;20314;-79
2021/05/11 00:15:45;;;;;;;1.50;1.40;;;;;;;10.35;81.94;94883.66;5071851;28;20235;-80
2021/05/11 00:18:11;;;;;;;2.77;1.83;;;;;;;10.31;82.98;94888.34;5072373;28;20177;-80
2021/05/11 00:20:36;;;;;;;2.00;1.73;;;;;;;10.34;82.81;94897.59;5071859;28;20646;-80
2021/05/11 00:23:02;;;;;;;1.90;1.80;;;;;;;10.32;82.49;94899.53;5072628;28;20181;-80
2021/05/11 00:25:27;;;;;;;3.93;1.80;;;;;;;10.30;82.55;94898.88;5072129;28;20687;-80
2021/05/11 00:27:53;;;;;;;2.53;1.63;;;;;;;10.29;82.35;94895.47;5073511;28;20254;-80
2021/05/11 00:30:18;;;;;;;1.77;1.67;;;;;;;10.27;82.82;94905.22;5054584;28;20189;-80
2021/05/11 00:32:44;;;;;;;1.73;1.63;;;;;;;10.30;83.09;94902.28;5055032;28;20715;-81
2021/05/11 00:35:10;;;;;;;2.47;2.17;;;;;;;10.30;82.85;94891.09;5055184;28;20197;-80
2021/05/11 00:37:36;;;;;;;5.00;3.20;;;;;;;10.28;82.97;94899.03;5055142;28;20391;-79
2021/05/11 00:40:05;;;;;;;7.37;5.77;;;;;;;10.23;84.04;94887.50;5072196;28;20649;-79
2021/05/11 00:42:30;;;;;;;143.40;11.50;;;;;;;10.14;84.77;94881.47;5071896;28;20251;-78
2021/05/11 00:44:56;;;;;;;18.27;8.90;;;;;;;10.16;84.89;94884.75;5055002;28;20701;-80
2021/05/11 00:47:21;;;;;;;10.77;8.40;;;;;;;10.20;84.70;94886.84;5055065;28;20554;-78
2021/05/11 00:49:48;;;;;;;10.27;7.47;;;;;;;10.21;84.71;94877.28;5054954;28;20652;-81
2021/05/11 00:52:13;;;;;;;11.40;9.50;;;;;;;10.21;84.83;94862.50;5071223;28;20216;-79
2021/05/11 00:54:39;;;;;;;11.30;8.77;;;;;;;10.18;84.99;94862.84;5054865;28;20192;-79
2021/05/11 00:57:04;;;;;;;12.80;9.17;;;;;;;10.20;84.90;94867.88;5071063;28;20212;-80
2021/05/11 00:59:30;;;;;;;11.97;8.93;;;;;;;10.20;84.99;94862.69;5071774;28;20185;-80
2021/05/11 01:01:57;;;;;;;11.93;9.27;;;;;;;10.23;84.77;94864.97;5071119;28;20227;-79
2021/05/11 01:04:24;;;;;;;12.43;9.50;;;;;;;10.20;84.57;94875.66;5054732;28;20181;-80
2021/05/11 01:06:50;;;;;;;11.87;8.27;;;;;;;10.24;84.72;94879.56;5054758;28;20204;-79
2021/05/11 01:09:15;;;;;;;8.50;6.83;;;;;;;10.25;84.46;94878.63;5071738;28;20778;-80
2021/05/11 01:11:42;;;;;;;7.10;5.63;;;;;;;10.26;83.80;94871.66;5070867;28;20690;-79
2021/05/11 01:14:07;;;;;;;6.67;5.13;;;;;;;10.25;83.60;94868.25;5071656;28;20177;-80
2021/05/11 01:16:33;;;;;;;5.47;4.27;;;;;;;10.23;83.51;94857.19;5071370;28;20286;-79
2021/05/11 01:19:05;;;;;;;3.87;3.47;;;;;;;10.24;83.23;94866.59;5071653;28;20173;-80
2021/05/11 01:21:47;;;;;;;3.13;2.50;;;;;;;10.19;83.03;94855.88;5054931;28;20212;-81
2021/05/11 01:24:28;;;;;;;3.70;2.60;;;;;;;10.16;83.33;94851.00;5057155;28;20275;-80
2021/05/11 01:27:03;;;;;;;3.90;3.17;;;;;;;10.15;83.37;94845.00;5056623;28;20709;-80
2021/05/11 01:45:53;;;;;;;1.40;1.30;;;;;;;10.18;81.74;94851.66;5075441;28;20214;-80
2021/05/11 01:48:20;;;;;;;1.80;1.40;;;;;;;10.17;81.98;94840.47;5075576;28;20209;-79
2021/05/11 01:51:36;;;;;;;2.77;1.57;;;;;;;10.15;82.17;94845.00;5075020;28;20192;-80
2021/05/11 02:23:35;;;;;;;1.87;1.00;;;;;;;10.06;82.07;94847.75;4999900;28;20198;-79
2021/05/11 02:26:02;;;;;;;2.20;1.20;;;;;;;10.08;82.27;94843.22;4980696;28;20171;-79
2021/05/11 02:28:28;;;;;;;1.33;1.20;;;;;;;10.10;81.86;94852.47;4997140;28;20187;-79
2021/05/11 02:30:53;;;;;;;2.40;1.17;;;;;;;10.12;82.09;94857.47;4996793;28;20728;-80
2021/05/11 02:33:19;;;;;;;1.20;1.03;;;;;;;10.08;82.21;94857.00;4997448;28;20254;-80
2021/05/11 02:35:44;;;;;;;1.30;1.20;;;;;;;10.08;82.17;94848.41;5030006;28;20713;-80
2021/05/11 02:38:09;;;;;;;1.37;1.23;;;;;;;10.10;82.14;94854.25;5073998;28;20177;-80
2021/05/11 02:40:35;;;;;;;1.70;1.20;;;;;;;10.05;82.43;94846.13;5073820;28;20173;-79
2021/05/11 02:43:04;;;;;;;1.47;1.37;;;;;;;10.05;82.48;94844.34;5057227;28;20173;-79
2021/05/11 02:45:31;;;;;;;1.70;1.60;;;;;;;10.06;82.39;94847.75;5074062;28;20201;-79
2021/05/11 02:47:56;;;;;;;2.03;1.83;;;;;;;10.04;82.35;94850.50;5073893;28;20177;-79
2021/05/11 02:50:23;;;;;;;1.97;1.83;;;;;;;10.03;82.25;94842.88;5056866;28;20208;-80
2021/05/11 02:52:49;;;;;;;2.53;2.20;;;;;;;10.00;82.57;94833.66;5057080;28;20185;-79
2021/05/11 02:55:16;;;;;;;3.13;2.53;;;;;;;10.01;82.78;94837.88;5072827;28;20227;-79
2021/05/11 02:57:41;;;;;;;3.67;2.40;;;;;;;10.04;82.84;94834.13;5073959;28;20174;-79
2021/05/11 03:00:08;;;;;;;2.60;2.40;;;;;;;9.99;82.88;94842.41;5073878;28;20597;-80
2021/05/11 03:02:34;;;;;;;3.13;2.37;;;;;;;9.98;82.87;94839.94;5073671;28;20200;-79
2021/05/11 03:05:00;;;;;;;3.40;2.80;;;;;;;10.02;83.26;94844.66;5073622;28;20181;-80
2021/05/11 03:07:26;;;;;;;2.67;2.47;;;;;;;10.00;83.40;94838.03;5056949;28;20185;-78
2021/05/11 03:09:51;;;;;;;2.70;2.50;;;;;;;10.01;83.60;94839.66;5073677;28;20165;-81
2021/05/11 03:12:16;;;;;;;3.53;2.87;;;;;;;10.02;83.49;94836.09;5056877;28;20671;-80
2021/05/11 03:14:41;;;;;;;3.03;2.63;;;;;;;10.01;83.88;94829.28;5056810;28;20683;-78
2021/05/11 03:17:07;;;;;;;11.80;10.03;;;;;;;10.00;83.53;94825.06;5056690;28;20742;-80
2021/05/11 03:19:32;;;;;;;8.83;6.40;;;;;;;10.00;83.86;94830.25;5056808;28;20203;-80
2021/05/11 03:21:58;;;;;;;6.17;5.23;;;;;;;9.99;83.93;94829.44;5073085;28;20266;-79
2021/05/11 03:24:23;;;;;;;3.90;3.40;;;;;;;10.02;83.88;94826.50;5074806;28;20615;-79
2021/05/11 03:26:50;;;;;;;3.53;3.23;;;;;;;10.03;83.71;94820.34;5073435;28;20640;-80
2021/05/11 03:29:15;;;;;;;3.50;3.20;;;;;;;10.04;83.66;94818.56;5074668;28;20180;-80
2021/05/11 03:31:41;;;;;;;4.00;3.40;;;;;;;10.04;83.71;94813.38;5056417;28;20197;-80
2021/05/11 03:34:06;;;;;;;3.17;2.90;;;;;;;10.06;83.65;94799.25;5056481;28;20249;-79
2021/05/11 03:36:32;;;;;;;3.30;3.00;;;;;;;10.10;83.70;94797.16;5056638;28;20197;-80
2021/05/11 03:39:00;;;;;;;3.00;2.70;;;;;;;10.07;83.37;94797.47;5056793;28;20680;-79
2021/05/11 03:41:29;;;;;;;3.47;2.93;;;;;;;10.04;83.41;94788.25;5072515;28;20189;-79
2021/05/11 03:43:59;;;;;;;2.73;2.53;;;;;;;10.05;83.55;94781.28;5073241;28;20199;-81
2021/05/11 03:46:25;;;;;;;2.73;2.53;;;;;;;10.04;83.64;94787.44;5073367;28;20510;-79
2021/05/11 03:48:50;;;;;;;2.60;2.40;;;;;;;10.02;83.46;94792.78;5072970;28;20184;-80
2021/05/11 03:51:16;;;;;;;3.27;2.70;;;;;;;10.02;83.62;94797.97;5072767;28;20282;-80
2021/05/11 03:53:42;;;;;;;4.57;2.47;;;;;;;10.01;83.67;94787.78;5072921;28;20192;-80
2021/05/11 03:56:08;;;;;;;4.33;2.60;;;;;;;9.97;83.79;94783.88;5055847;28;20680;-80
2021/05/11 03:58:33;;;;;;;3.10;2.80;;;;;;;10.04;83.74;94783.06;5055945;28;20207;-80
2021/05/11 04:00:59;;;;;;;5.37;4.17;;;;;;;10.06;83.44;94782.91;5072378;28;20201;-80
2021/05/11 04:03:25;;;;;;;4.43;3.17;;;;;;;10.06;83.43;94782.91;5056008;28;20219;-80
2021/05/11 04:05:52;;;;;;;3.43;3.10;;;;;;;10.06;83.89;94788.06;5055059;28;20212;-79
2021/05/11 04:08:33;;;;;;;3.60;3.30;;;;;;;10.08;83.69;94791.34;5056202;28;20235;-79
2021/05/11 04:11:15;;;;;;;3.50;3.20;;;;;;;10.12;83.65;94785.66;5072497;28;20224;-81
2021/05/11 04:16:26;;;;;;;3.70;2.97;;;;;;;10.17;83.30;94782.59;5072435;28;20203;-80
2021/05/11 04:18:52;;;;;;;3.67;3.37;;;;;;;10.19;83.36;94780.63;5056096;28;20593;-80
2021/05/11 04:21:18;;;;;;;3.30;2.80;;;;;;;10.19;83.32;94781.44;5056279;28;20197;-78
2021/05/11 04:23:44;;;;;;;3.90;3.13;;;;;;;10.23;83.24;94781.13;5072574;28;20261;-80
2021/05/11 04:26:14;;;;;;;3.40;3.10;;;;;;;10.19;82.88;94783.22;5072177;28;20247;-80
2021/05/11 04:28:39;;;;;;;3.77;3.43;;;;;;;10.24;83.39;94777.56;5072252;28;20260;-81
2021/05/11 04:31:05;;;;;;;3.10;2.90;;;;;;;10.24;82.93;94783.56;5055121;28;20204;-80
2021/05/11 04:33:31;;;;;;;2.90;2.63;;;;;;;10.26;82.76;94786.81;5055591;28;20173;-80
2021/05/11 04:35:56;;;;;;;3.53;2.70;;;;;;;10.27;82.70;94782.44;5055411;28;20235;-80
2021/05/11 04:38:22;;;;;;;2.90;2.70;;;;;;;10.28;82.77;94779.69;5055538;28;20538;-80
2021/05/11 04:40:48;;;;;;;3.30;3.00;;;;;;;10.31;82.81;94762.97;5054955;28;20189;-80
2021/05/11 04:43:13;;;;;;;3.17;2.87;;;;;;;10.30;82.45;94767.34;5072394;28;20174;-81
2021/05/11 04:45:39;;;;;;;6.57;4.63;;;;;;;10.30;82.61;94777.72;5055558;28;20172;-80
2021/05/11 04:48:04;;;;;;;4.90;4.23;;;;;;;10.30;82.54;94784.69;5072280;28;20197;-81
2021/05/11 04:50:30;;;;;;;7.90;5.17;;;;;;;10.30;83.11;94788.09;5055103;28;20736;-80
2021/05/11 04:52:56;;;;;;;5.80;4.90;;;;;;;10.20;83.66;94785.66;5055556;28;20192;-80
2021/05/11 04:55:22;;;;;;;9.13;5.90;;;;;;;10.22;83.69;94790.69;5071977;28;20215;-79
2021/05/11 04:57:47;;;;;;;8.80;5.90;;;;;;;10.28;83.52;94794.44;5071835;28;20165;-79
2021/05/11 05:00:14;;;;;;;8.87;6.43;;;;;;;10.31;83.31;94784.53;5055277;28;20177;-78
2021/05/11 05:02:42;;;;;;;9.20;6.57;;;;;;;10.28;83.39;94790.06;5055072;28;20200;-79
2021/05/11 05:05:08;;;;;;;12.13;8.13;;;;;;;10.32;83.68;94800.91;5071723;28;20176;-79
2021/05/11 05:07:37;;;;;;;10.20;7.97;;;;;;;10.31;83.34;94794.91;5072917;28;20181;-79
2021/05/11 05:10:07;;;;;;;11.00;7.43;;;;;;;10.35;83.47;94787.63;5055624;28;20196;-80
2021/05/11 05:12:33;;;;;;;9.43;6.57;;;;;;;10.33;83.20;94779.97;5054414;28;20196;-79
2021/05/11 05:14:59;;;;;;;10.07;7.60;;;;;;;10.38;83.18;94775.13;5071436;28;20699;-79
2021/05/11 05:17:24;;;;;;;12.87;8.57;;;;;;;10.37;83.59;94772.69;5054525;28;20203;-79
2021/05/11 05:19:50;;;;;;;11.00;8.13;;;;;;;10.35;83.59;94791.03;5071663;28;20548;-78
2021/05/11 05:22:16;;;;;;;10.77;8.23;;;;;;;10.40;83.52;94798.31;5054376;28;20207;-79
2021/05/11 05:27:20;;;;;;;10.13;7.67;;;;;;;10.39;83.60;94805.28;5071576;28;20652;-81
2021/05/11 05:29:46;;;;;;;10.40;8.47;;;;;;;10.37;83.74;94806.44;5055276;28;20243;-78
2021/05/11 05:32:12;;;;;;;11.73;8.83;;;;;;;10.42;83.74;94802.38;5070890;28;20292;-80
2021/05/11 05:34:37;;;;;;;11.03;9.30;;;;;;;10.43;83.69;94796.22;5071708;28;20184;-79
2021/05/11 05:37:02;;;;;;;10.73;8.83;;;;;;;10.48;83.30;94800.88;5054568;28;20209;-81
2021/05/11 05:39:35;;;;;;;11.87;9.03;;;;;;;10.35;83.80;94800.59;5071044;28;20632;-80
2021/05/11 05:42:01;;;;;;;12.77;10.50;;;;;;;10.50;83.62;94806.72;5071208;28;20193;-78
2021/05/11 05:44:26;;;;;;;11.10;8.93;;;;;;;10.42;82.84;94794.59;5072558;28;20234;-79
2021/05/11 05:46:52;;;;;;;12.83;10.23;;;;;;;10.51;82.68;94795.34;5054465;28;20571;-79
2021/05/11 05:49:17;;;;;;;13.80;11.73;;;;;;;10.50;83.24;94802.34;5054668;28;20185;-82
2021/05/11 05:51:46;;;;;;;12.67;10.47;;;;;;;10.55;82.81;94806.25;5053839;28;20578;-79
2021/05/11 05:54:11;;;;;;;11.97;9.73;;;;;;;10.65;82.82;94805.06;5071300;28;20264;-81
2021/05/11 05:56:37;;;;;;;12.17;9.97;;;;;;;10.64;82.55;94813.03;5070928;28;20283;-80
2021/05/11 05:59:02;;;;;;;12.43;10.07;;;;;;;10.49;83.17;94831.88;5071130;28;20189;-81
2021/05/11 06:01:29;;;;;;;12.13;9.57;;;;;;;10.60;83.15;94819.50;5053868;28;20688;-81
2021/05/11 06:04:15;;;;;;;17.77;13.00;;;;;;;10.60;82.86;94822.94;5054756;28;20177;-81
2021/05/11 06:06:41;;;;;;;18.13;12.60;;;;;;;10.63;83.01;94816.59;5071197;28;20719;-79
2021/05/11 06:09:11;;;;;;;20.03;12.53;;;;;;;10.66;82.52;94819.69;5071702;28;20213;-80
2021/05/11 06:11:44;;;;;;;19.97;13.63;;;;;;;10.70;82.54;94810.59;5071472;28;20197;-80
2021/05/11 06:14:16;;;;;;;19.90;13.90;;;;;;;10.53;82.95;94818.56;5071401;28;20177;-80
2021/05/11 06:19:25;;;;;;;19.10;13.80;;;;;;;10.55;83.33;94795.84;5072046;28;20187;-80
2021/05/11 06:21:50;;;;;;;16.60;12.43;;;;;;;10.57;83.27;94788.69;5054477;28;20292;-79
2021/05/11 06:24:16;;;;;;;17.50;13.90;;;;;;;10.61;83.07;94795.19;5071382;28;20268;-79
2021/05/11 06:26:41;;;;;;;19.33;13.63;;;;;;;10.61;83.57;94792.59;5071252;28;20188;-80
2021/05/11 06:29:09;;;;;;;19.63;14.43;;;;;;;10.66;83.28;94772.94;5072567;28;20181;-79
2021/05/11 06:31:35;;;;;;;17.17;12.90;;;;;;;10.69;83.27;94761.41;5058351;28;20197;-80
2021/05/11 06:34:01;;;;;;;19.83;15.17;;;;;;;10.63;83.38;94762.88;5075014;28;20654;-79
2021/05/11 06:36:27;;;;;;;19.03;13.77;;;;;;;10.69;83.14;94772.63;5058605;28;20308;-80
2021/05/11 06:38:52;;;;;;;17.10;13.90;;;;;;;10.74;82.83;94785.91;5074791;28;20217;-79
2021/05/11 06:41:17;;;;;;;17.00;13.70;;;;;;;10.80;82.60;94776.63;5074820;28;20197;-80
2021/05/11 06:43:44;;;;;;;16.73;11.87;;;;;;;10.80;81.99;94768.84;5074863;28;20177;-80
2021/05/11 06:46:41;;;;;;;14.63;11.37;;;;;;;10.85;81.53;94756.16;5075000;28;20165;-79
2021/05/11 06:53:54;;;;;;;15.00;10.50;;;;;;;10.74;81.99;94769.50;5075156;28;20185;-80
2021/05/11 06:56:21;;;;;;;13.93;10.57;;;;;;;10.74;81.77;94772.09;5074794;28;20204;-80
2021/05/11 06:58:46;;;;;;;15.03;10.90;;;;;;;10.81;81.41;94759.25;5058153;28;20188;-80
2021/05/11 07:01:15;;;;;;;14.63;11.60;;;;;;;10.74;81.83;94762.53;5057634;28;20201;-79
2021/05/11 07:03:41;;;;;;;15.47;11.87;;;;;;;10.79;81.71;94775.03;5074736;28;20203;-80
2021/05/11 07:06:06;;;;;;;17.43;12.73;;;;;;;10.60;82.54;94768.44;5058014;28;20169;-80
2021/05/11 07:08:53;;;;;;;16.40;12.47;;;;;;;10.68;82.37;94768.38;5074492;28;20181;-79
2021/05/11 07:13:47;;;;;;;18.13;12.87;;;;;;;10.71;82.99;94764.66;5075520;28;20245;-80
2021/05/11 07:16:12;;;;;;;18.23;12.70;;;;;;;10.80;82.22;94760.25;5074238;28;20323;-79
2021/05/11 07:18:38;;;;;;;21.03;13.87;;;;;;;10.78;81.76;94755.22;5074437;28;20189;-78
2021/05/11 07:21:04;;;;;;;17.37;13.87;;;;;;;10.87;81.43;94762.00;5073174;28;20200;-76
2021/05/11 07:23:29;;;;;;;18.70;14.70;;;;;;;10.94;80.82;94749.94;5073479;28;20181;-80
2021/05/11 07:26:07;;;;;;;19.37;13.93;;;;;;;10.98;80.54;94740.84;5073592;28;20180;-79
2021/05/11 07:31:32;;;;;;;17.27;13.93;;;;;;;11.04;81.03;94729.78;4992359;28;20218;-80
2021/05/11 07:33:59;;;;;;;21.87;15.27;;;;;;;11.06;79.87;94727.00;4976410;28;20642;-78
2021/05/11 07:36:25;;;;;;;19.50;14.80;;;;;;;10.68;81.51;94736.41;4976893;28;20777;-78
2021/05/11 07:38:51;;;;;;;20.17;15.40;;;;;;;10.66;82.00;94736.59;4976159;28;20278;-78
2021/05/11 07:41:18;;;;;;;19.53;15.43;;;;;;;10.87;81.40;94733.44;4976074;28;20562;-78
2021/05/11 07:43:46;;;;;;;19.93;15.80;;;;;;;10.93;80.86;94732.75;4960102;28;20188;-78
2021/05/11 07:48:55;;;;;;;18.83;14.40;;;;;;;11.17;79.72;94733.59;4976631;28;20212;-77
2021/05/11 08:10:34;;;;;;;8.77;7.87;;;;;;;11.77;76.32;94727.69;5072444;28;20191;-77
2021/05/11 08:15:40;;;;;;;10.87;8.33;;;;;;;12.32;76.27;94750.00;5072605;28;20204;-77
2021/05/11 08:18:24;;;;;;;10.57;8.17;;;;;;;12.33;75.61;94744.63;5073662;28;20180;-79
2021/05/11 08:28:27;;;;;;;10.53;7.10;;;;;;;13.41;71.19;94732.78;5072401;28;20238;-78
2021/05/11 08:30:52;;;;;;;7.07;6.20;;;;;;;13.76;70.29;94739.75;5055232;28;20676;-79
2021/05/11 08:33:18;;;;;;;7.97;6.50;;;;;;;13.94;68.95;94730.69;5055318;28;20177;-79
2021/05/11 08:35:44;;;;;;;7.60;6.40;;;;;;;13.91;68.79;94725.84;5073108;28;20204;-79
2021/05/11 08:38:09;;;;;;;6.77;6.07;;;;;;;14.08;67.24;94721.97;5055461;28;20323;-77
2021/05/11 08:40:36;;;;;;;6.77;6.17;;;;;;;14.08;67.98;94711.53;5071998;28;20668;-79
2021/05/11 08:43:06;;;;;;;8.13;5.70;;;;;;;14.28;68.24;94716.91;5055387;28;20181;-79
2021/05/11 08:45:32;;;;;;;7.40;5.53;;;;;;;13.95;67.17;94721.84;5071772;28;20181;-77
2021/05/11 08:47:58;;;;;;;5.57;4.97;;;;;;;14.16;66.61;94730.47;5072190;28;20177;-78
2021/05/11 08:50:37;;;;;;;5.27;4.80;;;;;;;13.84;67.29;94741.44;5073373;28;20691;-78
2021/05/11 09:04:52;;;;;;;5.20;4.70;;;;;;;14.52;64.83;94733.97;5072878;28;20553;-77
2021/05/11 09:29:34;;;;;;;4.85;4.43;;;;;;;15.52;60.95;94756.97;5030120;28;20604;-78
2021/05/11 09:59:36;;;;;;;9.75;7.45;;;;;;;16.65;58.67;94750.81;5071542;28;20189;-78
2021/05/11 10:41:47;;;;;;;3.55;2.22;;;;;;;16.07;59.95;94753.25;5073978;28;20209;-77
2021/05/11 10:49:37;;;;;;;3.58;2.35;;;;;;;16.06;59.84;94759.50;5074697;28;20543;-78
2021/05/11 10:52:10;;;;;;;4.22;2.78;;;;;;;16.02;60.41;94760.13;5071672;28;20205;-77
2021/05/11 10:54:52;;;;;;;2.17;1.98;;;;;;;16.60;58.17;94765.53;5074843;28;20172;-76
2021/05/11 11:00:19;;;;;;;2.10;1.90;;;;;;;16.08;59.50;94773.22;5073868;28;20177;-77
2021/05/11 11:03:15;;;;;;;4.63;2.30;;;;;;;16.11;59.75;94778.06;5074464;28;20276;-77
2021/05/11 11:05:44;;;;;;;3.35;2.10;;;;;;;16.39;58.81;94782.28;5073470;28;20197;-78
2021/05/11 11:08:26;;;;;;;2.63;2.00;;;;;;;16.80;58.03;94776.84;5066496;28;20216;-79
2021/05/11 11:10:51;;;;;;;2.28;2.10;;;;;;;17.02;57.43;94779.22;5058518;28;20204;-78
2021/05/11 11:13:17;;;;;;;4.15;2.40;;;;;;;17.22;57.76;94786.00;5053169;28;20196;-78
2021/05/11 11:15:42;;;;;;;2.55;2.35;;;;;;;17.48;55.41;94787.72;5052212;28;20224;-79
2021/05/11 11:18:07;;;;;;;2.25;1.80;;;;;;;17.46;55.52;94784.50;5036018;28;20215;-78
2021/05/11 11:20:39;;;;;;;2.28;1.80;;;;;;;17.64;54.41;94780.41;5052648;28;20178;-78
2021/05/11 11:26:04;;;;;;;2.30;1.60;;;;;;;17.63;53.89;94774.34;5059947;28;20254;-78
2021/05/11 11:28:30;;;;;;;3.13;1.80;;;;;;;17.54;54.83;94770.34;5057093;28;20196;-80
2021/05/11 11:30:56;;;;;;;1.60;1.50;;;;;;;18.06;53.34;94774.53;5055822;28;20307;-77
2021/05/11 11:33:21;;;;;;;1.73;1.63;;;;;;;18.03;53.01;94766.28;5072937;28;20189;-78
2021/05/11 11:35:46;;;;;;;2.20;1.42;;;;;;;18.13;53.74;94778.94;5073006;28;20208;-78
2021/05/11 11:38:26;;;;;;;2.30;1.80;;;;;;;17.64;53.65;94772.53;5073871;28;20334;-78
2021/05/11 11:41:01;;;;;;;1.50;1.40;;;;;;;17.74;53.59;94781.56;5072231;28;20255;-79
2021/05/11 11:43:28;;;;;;;6.15;2.00;;;;;;;17.27;55.12;94794.06;5072461;28;20175;-78
2021/05/11 11:45:54;;;;;;;2.42;2.00;;;;;;;16.84;56.12;94792.97;5055415;28;20238;-79
2021/05/11 11:48:21;;;;;;;4.25;1.90;;;;;;;16.90;57.26;94789.53;5046958;28;20273;-79
2021/05/11 11:50:58;;;;;;;1.92;1.77;;;;;;;16.89;56.97;94803.66;5051928;28;20203;-78
2021/05/11 11:53:28;;;;;;;2.10;2.00;;;;;;;16.39;58.45;94811.13;5052877;28;20169;-78
2021/05/11 11:57:44;;;;;;;2.85;2.50;;;;;;;16.12;59.40;94818.94;5053642;28;20197;-78
2021/05/11 11:58:49;;;;;;;2.88;2.60;;;;;;;15.86;60.09;94832.78;5049170;28;20304;-78
2021/05/11 12:01:16;;;;;;;3.72;2.70;;;;;;;15.61;60.88;94829.09;5053118;28;20193;-77
2021/05/11 12:03:41;;;;;;;4.68;2.90;;;;;;;15.13;62.10;94818.59;5052926;28;20170;-78
2021/05/11 12:06:07;;;;;;;3.10;2.90;;;;;;;15.06;62.72;94830.81;5036273;28;20185;-78
2021/05/11 12:08:32;;;;;;;3.00;2.60;;;;;;;14.75;63.85;94820.75;5053893;28;20182;-78
2021/05/11 12:11:05;;;;;;;3.42;2.95;;;;;;;14.42;65.07;94808.22;5036332;28;20194;-78
2021/05/11 12:13:36;;;;;;;2.83;2.63;;;;;;;14.45;65.60;94802.66;5036891;28;20260;-78
2021/05/11 12:16:22;;;;;;;4.20;3.40;;;;;;;14.28;66.30;94788.22;5053200;28;20200;-77
2021/05/11 12:21:27;;;;;;;3.70;3.37;;;;;;;14.34;66.66;94794.50;5054296;28;20205;-79
2021/05/11 12:24:07;;;;;;;4.20;3.83;;;;;;;14.14;67.06;94799.56;5053598;28;20181;-78
2021/05/11 12:26:33;;;;;;;4.50;4.10;;;;;;;13.96;67.96;94801.78;5035194;28;20181;-77
2021/05/11 12:29:16;;;;;;;4.30;4.00;;;;;;;14.18;67.64;94795.56;5052918;28;20166;-78
2021/05/11 12:31:49;;;;;;;4.63;4.23;;;;;;;13.90;68.22;94813.78;5052002;28;20192;-78
2021/05/11 12:34:22;;;;;;;4.70;4.20;;;;;;;13.93;68.35;94823.03;5036155;28;20174;-79
2021/05/11 12:36:52;;;;;;;4.90;4.47;;;;;;;13.89;68.29;94828.63;5036303;28;20563;-79
2021/05/11 12:41:52;;;;;;;5.23;4.67;;;;;;;13.64;69.10;94816.91;5052720;28;20668;-79
2021/05/11 12:44:28;;;;;;;6.10;5.60;;;;;;;13.35;69.84;94832.63;5035785;28;20204;-78
2021/05/11 12:46:58;;;;;;;6.63;5.23;;;;;;;13.16;70.46;94826.13;5036273;28;20514;-78
2021/05/11 12:49:24;;;;;;;6.47;5.87;;;;;;;13.00;71.37;94827.94;5051821;28;20420;-76
2021/05/11 12:51:51;;;;;;;5.70;5.20;;;;;;;12.93;71.37;94827.03;5051614;28;20216;-78
2021/05/11 12:54:48;;;;;;;5.97;5.37;;;;;;;13.02;70.62;94836.38;5052635;28;20173;-78
2021/05/11 12:57:30;;;;;;;5.37;4.97;;;;;;;13.14;70.62;94834.13;5052578;28;20202;-79
2021/05/11 13:00:12;;;;;;;5.83;5.33;;;;;;;13.00;70.46;94832.34;5052673;28;20642;-77
2021/05/11 13:16:15;;;;;;;3.03;2.80;;;;;;;12.73;71.65;94816.34;5051207;28;20202;-78
2021/05/11 13:27:14;;;;;;;1.80;1.70;;;;;;;12.56;71.81;94833.13;5052150;28;20554;-77
2021/05/11 13:30:42;;;;;;;1.70;1.53;;;;;;;12.65;72.03;94836.44;5056620;28;20181;-77
2021/05/11 13:35:01;;;;;;;1.70;1.60;;;;;;;12.57;71.54;94844.34;5060777;28;20177;-77
2021/05/11 13:37:28;;;;;;;2.10;1.85;;;;;;;12.41;72.64;94834.88;5054514;28;20428;-78
2021/05/11 13:39:53;;;;;;;19.00;13.43;;;;;;;12.54;73.33;94837.66;5066793;28;20177;-77
2021/05/11 13:42:19;;;;;;;7.17;5.83;;;;;;;12.69;72.80;94833.31;5059355;28;20197;-78
2021/05/11 13:44:44;;;;;;;3.07;2.07;;;;;;;12.78;72.27;94839.25;5058018;28;20173;-78
2021/05/11 13:47:09;;;;;;;3.00;1.20;;;;;;;12.59;72.68;94845.78;5040616;28;20232;-77
2021/05/11 13:49:35;;;;;;;1.87;1.13;;;;;;;12.57;73.32;94846.94;5057076;28;20177;-78
2021/05/11 13:52:00;;;;;;;1.00;1.00;;;;;;;12.47;74.02;94849.81;5057787;28;20292;-79
2021/05/11 13:54:25;;;;;;;1.00;1.00;;;;;;;12.46;74.17;94851.59;5058096;28;20177;-78
2021/05/11 13:57:14;;;;;;;3.10;1.20;;;;;;;12.36;76.05;94858.00;5067425;28;20287;-80
2021/05/11 14:04:55;;;;;;;2.17;1.30;;;;;;;12.34;75.48;94867.78;5078876;28;20524;-80
2021/05/11 14:07:20;;;;;;;3.57;1.60;;;;;;;12.28;76.62;94871.91;5077908;28;20180;-79
2021/05/11 14:09:46;;;;;;;3.63;3.27;;;;;;;12.28;76.72;94879.72;5060817;28;20184;-79
2021/05/11 14:12:11;;;;;;;2.77;2.47;;;;;;;12.33;76.44;94882.59;5060661;28;20192;-79
2021/05/11 14:14:38;;;;;;;2.97;2.67;;;;;;;12.27;76.78;94883.28;5060847;28;20209;-79
2021/05/11 14:17:03;;;;;;;4.23;3.93;;;;;;;12.26;76.53;94886.88;5061281;28;20260;-79
2021/05/11 14:19:30;;;;;;;1.27;1.00;;;;;;;12.00;76.66;94881.19;5060490;28;20593;-79
2021/05/11 14:21:56;;;;;;;1.33;0.90;;;;;;;11.97;78.04;94882.38;5060896;28;20280;-80
2021/05/11 14:24:21;;;;;;;1.87;1.70;;;;;;;12.15;77.46;94871.69;5077465;28;20245;-79
2021/05/11 14:26:47;;;;;;;2.07;1.00;;;;;;;12.15;78.11;94872.47;5078769;28;20238;-79
2021/05/11 14:29:12;;;;;;;1.00;0.80;;;;;;;12.24;77.78;94867.22;5054391;28;20182;-77
2021/05/11 14:31:38;;;;;;;1.20;1.00;;;;;;;12.22;77.55;94864.00;5051384;28;20236;-77
2021/05/11 14:34:03;;;;;;;0.93;0.80;;;;;;;12.13;77.32;94863.25;5075163;28;20230;-78
2021/05/11 14:36:29;;;;;;;1.70;1.20;;;;;;;12.16;77.04;94855.06;5060339;28;20292;-78
2021/05/11 14:38:54;;;;;;;1.00;0.90;;;;;;;12.12;77.05;94851.22;5077437;28;20547;-78
2021/05/11 14:41:20;;;;;;;0.70;0.60;;;;;;;12.01;78.01;94847.19;5057440;28;20197;-77
2021/05/11 14:43:45;;;;;;;1.97;0.80;;;;;;;11.98;77.67;94852.75;5068036;28;20184;-78
2021/05/11 14:46:11;;;;;;;3.07;1.90;;;;;;;11.87;77.72;94850.56;5048588;28;20270;-77
2021/05/11 14:48:37;;;;;;;4.33;2.90;;;;;;;11.90;77.92;94855.41;5057034;28;20228;-77
2021/05/11 14:51:04;;;;;;;3.07;2.10;;;;;;;11.86;77.38;94859.34;5069968;28;20915;-76
2021/05/11 14:53:31;;;;;;;0.93;0.70;;;;;;;11.77;77.56;94855.16;5068445;28;20271;-76
2021/05/11 14:55:57;;;;;;;0.63;0.63;;;;;;;11.71;77.85;94856.63;5051243;28;20209;-77
2021/05/11 14:58:22;;;;;;;0.67;0.67;;;;;;;11.73;78.04;94859.06;5057092;28;20174;-77
2021/05/11 15:00:48;;;;;;;3.40;1.00;;;;;;;11.69;77.97;94850.00;5074706;28;20195;-76
2021/05/11 15:03:14;;;;;;;0.60;0.60;;;;;;;11.69;78.20;94857.78;5073541;28;20169;-77
2021/05/11 15:05:40;;;;;;;1.13;0.80;;;;;;;11.73;77.91;94846.06;5056735;28;20219;-77
2021/05/11 15:08:06;;;;;;;1.67;1.40;;;;;;;11.64;78.34;94848.69;5072603;28;20675;-77
2021/05/11 15:10:32;;;;;;;1.00;0.90;;;;;;;11.66;78.21;94853.75;5074497;28;20197;-77
2021/05/11 15:12:58;;;;;;;1.57;1.33;;;;;;;11.59;79.10;94856.22;5073093;28;20205;-77
2021/05/11 15:15:23;;;;;;;3.30;2.43;;;;;;;11.57;79.04;94860.78;5056310;28;20180;-75
2021/05/11 15:20:15;;;;;;;21.03;12.00;;;;;;;11.41;80.07;94858.25;5073386;28;20227;-78
2021/05/11 15:22:41;;;;;;;14.60;8.70;;;;;;;11.35;80.10;94861.53;5074092;28;20196;-78
2021/05/11 15:25:07;;;;;;;3.30;2.03;;;;;;;11.37;80.46;94863.94;5073689;28;20264;-77
2021/05/11 15:27:34;;;;;;;6.50;4.30;;;;;;;11.38;80.48;94863.78;5073714;28;20266;-78
2021/05/11 15:30:00;;;;;;;11.47;6.57;;;;;;;11.34;80.23;94865.09;5074007;28;20173;-80
2021/05/11 15:32:44;;;;;;;13.17;9.13;;;;;;;11.30;81.11;94876.81;5074697;28;20200;-79
2021/05/11 15:35:17;;;;;;;1.93;1.67;;;;;;;11.24;80.49;94875.69;5057242;28;20532;-79
2021/05/11 15:37:45;;;;;;;2.00;1.63;;;;;;;11.32;80.68;94877.47;5073655;28;20223;-80
2021/05/11 15:40:15;;;;;;;2.77;1.70;;;;;;;11.28;80.86;94876.16;5073671;28;20173;-79